Time;durP1;ratioP1;P1;durP2;ratioP2;P2;SDS_P1;SDS_P2;PMS_P1;PMS_P2;Temp;Humidity;BMP_temperature;BMP_pressure;BME280_temperature;BME280_humidity;BME280_pressure;Samples;Min_cycle;Max_cycle;Signal;HPM_P1;HPM_P2
2022/09/26 00:00:41;;;;;;;19.97;17.80;;;;;;;11.87;98.67;97000.66;6256006;28;20369;-39
2022/09/26 00:03:48;;;;;;;19.27;17.27;;;;;;;11.84;98.88;96999.13;6256395;28;20235;-40
2022/09/26 00:06:52;;;;;;;19.77;17.77;;;;;;;11.80;98.78;96993.28;6271996;28;20231;-39
2022/09/26 00:09:54;;;;;;;20.70;18.50;;;;;;;11.80;99.15;96993.28;6256809;28;20750;-39
2022/09/26 00:12:57;;;;;;;16.47;14.77;;;;;;;11.78;99.03;96994.41;6255593;28;20261;-39
2022/09/26 00:15:59;;;;;;;18.07;16.33;;;;;;;11.76;98.99;96983.19;6255914;28;20242;-39
2022/09/26 00:19:03;;;;;;;21.60;19.30;;;;;;;11.76;98.93;96988.47;6255428;28;20219;-39
2022/09/26 00:22:05;;;;;;;25.07;22.40;;;;;;;11.72;99.38;96977.31;6257064;28;20246;-40
2022/09/26 00:25:08;;;;;;;20.00;17.97;;;;;;;11.67;99.20;96982.22;6255048;28;20234;-40
2022/09/26 00:28:10;;;;;;;21.00;18.90;;;;;;;11.67;99.23;96981.41;6255424;28;20246;-39
2022/09/26 00:31:17;;;;;;;20.20;18.03;;;;;;;11.67;99.58;96978.75;6254203;28;20235;-40
2022/09/26 00:34:19;;;;;;;25.33;22.57;;;;;;;11.63;99.31;96978.19;6270858;28;20235;-39
2022/09/26 00:37:22;;;;;;;22.37;20.00;;;;;;;11.62;99.41;96975.69;6256657;28;20706;-39
2022/09/26 00:40:26;;;;;;;20.57;18.37;;;;;;;11.62;99.39;96971.25;6257839;28;20246;-39
2022/09/26 00:43:38;;;;;;;24.77;22.13;;;;;;;11.61;99.63;96966.09;6268203;28;20230;-39
2022/09/26 00:46:47;;;;;;;24.87;22.30;;;;;;;11.57;99.67;96965.59;6255642;28;20263;-39
2022/09/26 00:49:57;;;;;;;29.57;25.03;;;;;;;11.56;99.68;96961.28;6255419;28;20247;-39
2022/09/26 00:53:13;;;;;;;27.03;24.13;;;;;;;11.53;99.75;96966.84;6255755;28;20792;-39
2022/09/26 00:56:37;;;;;;;25.17;21.63;;;;;;;11.51;99.70;96965.31;6255899;28;20238;-39
2022/09/26 00:59:47;;;;;;;23.07;20.53;;;;;;;11.50;100.00;96967.13;6254407;28;20722;-40
2022/09/26 01:02:52;;;;;;;21.97;19.67;;;;;;;11.51;99.81;96962.69;6237341;28;20711;-39
2022/09/26 01:05:56;;;;;;;22.50;19.37;;;;;;;11.52;99.97;96966.97;6254936;28;20319;-39
2022/09/26 01:09:07;;;;;;;21.07;18.60;;;;;;;11.52;99.74;96967.81;6255100;28;20266;-39
2022/09/26 01:12:10;;;;;;;19.83;17.83;;;;;;;11.55;99.94;96977.28;6252863;28;20262;-40
2022/09/26 01:15:12;;;;;;;20.43;17.13;;;;;;;11.56;100.00;96963.09;6255074;28;20214;-39
2022/09/26 01:18:14;;;;;;;16.73;15.07;;;;;;;11.55;100.00;96964.91;6270910;28;20242;-39
2022/09/26 01:21:41;;;;;;;17.77;15.87;;;;;;;11.57;100.00;96960.31;6255439;28;20265;-40
2022/09/26 01:25:05;;;;;;;18.27;15.83;;;;;;;11.57;100.00;96959.47;6253606;28;20694;-39
2022/09/26 01:28:47;;;;;;;14.20;12.70;;;;;;;11.58;100.00;96956.66;6254756;28;20232;-39
2022/09/26 01:35:50;;;;;;;18.03;16.13;;;;;;;11.50;99.98;96947.78;6254173;28;20227;-40
2022/09/26 01:39:27;;;;;;;14.20;12.67;;;;;;;11.45;100.00;96941.16;6254082;28;20304;-40
2022/09/26 01:42:49;;;;;;;11.13;10.10;;;;;;;11.42;100.00;96932.69;6257688;28;20231;-39
2022/09/26 01:46:27;;;;;;;9.10;8.27;;;;;;;11.40;100.00;96924.06;6251961;28;20238;-40
2022/09/26 01:49:32;;;;;;;7.13;6.43;;;;;;;11.39;100.00;96919.75;6250946;28;20244;-39
2022/09/26 01:52:43;;;;;;;6.57;5.93;;;;;;;11.40;100.00;96913.50;6260261;28;20233;-39
2022/09/26 01:55:56;;;;;;;6.60;5.50;;;;;;;11.37;100.00;96913.81;6262506;28;20224;-39
2022/09/26 01:59:13;;;;;;;5.87;5.23;;;;;;;11.37;100.00;96906.72;6260134;28;20229;-39
2022/09/26 02:02:26;;;;;;;5.60;4.87;;;;;;;11.36;100.00;96901.56;6277174;28;20245;-39
2022/09/26 02:05:37;;;;;;;5.57;5.07;;;;;;;11.36;100.00;96909.50;6279488;28;20237;-39
2022/09/26 02:08:44;;;;;;;6.47;4.80;;;;;;;11.34;100.00;96899.09;6278136;28;20234;-40
2022/09/26 02:11:49;;;;;;;6.30;4.60;;;;;;;11.33;99.93;96907.16;6260839;28;20230;-39
2022/09/26 02:14:57;;;;;;;4.37;3.97;;;;;;;11.31;100.00;96902.00;6261284;28;20296;-39
2022/09/26 02:18:11;;;;;;;6.80;4.63;;;;;;;11.31;100.00;96894.09;6261124;28;20241;-39
2022/09/26 02:21:22;;;;;;;4.47;3.80;;;;;;;11.33;100.00;96892.13;6278843;28;20230;-39
2022/09/26 02:24:26;;;;;;;4.50;4.10;;;;;;;11.35;100.00;96894.63;6276983;28;20551;-39
2022/09/26 02:27:30;;;;;;;4.60;4.20;;;;;;;11.36;99.96;96904.22;6277119;28;20604;-40
2022/09/26 02:30:32;;;;;;;4.27;3.87;;;;;;;11.35;99.95;96902.56;6278159;28;20241;-40
2022/09/26 02:33:35;;;;;;;4.67;4.27;;;;;;;11.37;99.93;96903.25;6259070;28;20237;-40
2022/09/26 02:36:38;;;;;;;4.97;4.23;;;;;;;11.35;99.85;96900.75;6264522;28;20231;-39
2022/09/26 02:39:45;;;;;;;4.70;3.83;;;;;;;11.35;99.83;96895.47;6264554;28;20234;-39
2022/09/26 02:43:14;;;;;;;4.30;3.90;;;;;;;11.36;99.95;96899.78;6280235;28;20735;-41
2022/09/26 02:46:50;;;;;;;4.07;3.70;;;;;;;11.37;99.87;96890.88;6280298;28;20238;-39
2022/09/26 02:49:52;;;;;;;4.43;3.60;;;;;;;11.37;99.99;96880.31;6283443;28;20605;-39
2022/09/26 02:53:36;;;;;;;6.43;3.97;;;;;;;11.40;99.56;96887.91;6282553;28;20728;-39
2022/09/26 02:56:54;;;;;;;4.80;3.43;;;;;;;11.42;99.81;96890.41;6257641;28;20223;-39
2022/09/26 03:00:27;;;;;;;4.03;3.70;;;;;;;11.42;99.60;96898.34;6265118;28;20233;-39
2022/09/26 03:03:59;;;;;;;6.60;4.67;;;;;;;11.36;99.34;96891.84;6165407;28;20229;-39
2022/09/26 03:07:08;;;;;;;4.33;3.93;;;;;;;11.40;99.16;96906.41;6181896;28;20364;-39
2022/09/26 03:10:12;;;;;;;3.70;3.40;;;;;;;11.43;98.93;96902.66;6180521;28;20331;-39
2022/09/26 03:13:17;;;;;;;5.00;3.40;;;;;;;11.44;98.92;96893.75;6181296;28;20705;-39
2022/09/26 03:16:22;;;;;;;3.90;3.47;;;;;;;11.44;98.81;96893.75;6180684;28;20674;-39
2022/09/26 03:19:34;;;;;;;3.53;3.23;;;;;;;11.44;98.55;96888.47;6182483;28;20268;-39
2022/09/26 03:22:38;;;;;;;3.57;3.27;;;;;;;11.46;98.25;96892.63;6165435;28;20371;-39
2022/09/26 03:25:41;;;;;;;2.83;2.63;;;;;;;11.44;98.20;96888.47;6146246;28;20228;-39
2022/09/26 03:28:46;;;;;;;3.57;3.07;;;;;;;11.43;98.51;96886.78;6165373;28;20601;-39
2022/09/26 03:31:49;;;;;;;3.40;3.10;;;;;;;11.40;98.71;96876.50;6164420;28;20287;-39
2022/09/26 03:34:52;;;;;;;4.43;2.40;;;;;;;11.40;98.79;96877.34;6182015;28;20421;-39
2022/09/26 03:37:54;;;;;;;3.50;2.63;;;;;;;11.39;98.82;96872.22;6164461;28;20524;-40
2022/09/26 03:40:57;;;;;;;2.70;2.50;;;;;;;11.35;98.75;96874.31;6258058;28;20372;-39
2022/09/26 03:44:31;;;;;;;3.07;2.57;;;;;;;11.32;99.24;96874.63;6282283;28;20328;-39
2022/09/26 03:47:46;;;;;;;2.90;2.70;;;;;;;11.31;98.87;96887.97;6279264;28;20238;-39
2022/09/26 03:50:48;;;;;;;3.40;3.10;;;;;;;11.34;98.81;96882.41;6281530;28;20231;-39
2022/09/26 03:53:50;;;;;;;2.90;2.70;;;;;;;11.35;99.10;96887.53;6280181;28;20604;-39
2022/09/26 03:56:55;;;;;;;2.73;2.53;;;;;;;11.38;98.58;96879.28;6279682;28;20314;-39
2022/09/26 03:59:57;;;;;;;3.40;2.83;;;;;;;11.41;98.27;96880.81;6279644;28;20222;-39
2022/09/26 04:03:05;;;;;;;4.20;3.00;;;;;;;11.39;98.36;96873.03;6263713;28;20218;-39
2022/09/26 04:06:18;;;;;;;4.70;4.30;;;;;;;11.39;98.27;96880.13;6262703;28;20238;-40
2022/09/26 04:09:23;;;;;;;4.53;4.07;;;;;;;11.43;97.89;96876.22;6280019;28;20225;-39
2022/09/26 04:12:26;;;;;;;3.60;3.30;;;;;;;11.43;97.78;96877.06;6280791;28;20704;-39
2022/09/26 04:15:29;;;;;;;3.73;3.43;;;;;;;11.43;97.97;96876.22;6280801;28;20236;-40
2022/09/26 04:18:40;;;;;;;5.80;4.40;;;;;;;11.42;98.05;96871.91;6262755;28;20381;-39
2022/09/26 04:21:42;;;;;;;5.50;4.03;;;;;;;11.39;98.14;96875.69;6280853;28;20234;-40
2022/09/26 04:24:44;;;;;;;5.17;3.77;;;;;;;11.36;98.19;96876.00;6262139;28;20258;-39
2022/09/26 04:27:48;;;;;;;7.53;6.40;;;;;;;11.34;98.43;96872.66;6279169;28;20222;-39
2022/09/26 04:30:50;;;;;;;8.87;5.97;;;;;;;11.38;98.71;96870.53;6261798;28;20724;-39
2022/09/26 04:33:56;;;;;;;5.47;4.97;;;;;;;11.38;98.57;96867.91;6279929;28;20322;-39
2022/09/26 04:36:59;;;;;;;10.63;9.20;;;;;;;11.36;98.83;96862.78;6278976;28;20230;-39
2022/09/26 04:40:03;;;;;;;11.83;8.90;;;;;;;11.39;99.00;96859.81;6262133;28;20591;-39
2022/09/26 04:43:07;;;;;;;9.67;8.00;;;;;;;11.44;98.70;96857.59;6279863;28;20314;-39
2022/09/26 04:46:12;;;;;;;10.50;8.33;;;;;;;11.47;98.57;96861.75;6262064;28;20238;-39
2022/09/26 04:49:23;;;;;;;10.27;9.13;;;;;;;11.48;98.05;96855.47;6279034;28;20572;-40
2022/09/26 04:52:25;;;;;;;10.00;8.93;;;;;;;11.53;97.77;96861.16;6262253;28;20375;-40
2022/09/26 04:55:27;;;;;;;10.63;9.53;;;;;;;11.54;97.86;96852.25;6262736;28;20614;-39
2022/09/26 04:58:29;;;;;;;8.87;7.93;;;;;;;11.54;97.76;96862.81;6279436;28;20705;-40
2022/09/26 05:01:31;;;;;;;11.33;9.67;;;;;;;11.54;97.70;96861.97;6277891;28;20328;-39
2022/09/26 05:04:43;;;;;;;9.50;8.50;;;;;;;11.54;97.65;96862.81;6279492;28;20264;-41
2022/09/26 05:07:45;;;;;;;10.97;8.80;;;;;;;11.54;98.04;96868.09;6279175;28;20722;-40
2022/09/26 05:10:53;;;;;;;10.97;9.83;;;;;;;11.56;97.87;96862.66;6277719;28;20242;-40
2022/09/26 05:13:56;;;;;;;15.20;12.90;;;;;;;11.60;97.63;96864.84;6284011;28;20226;-39
2022/09/26 05:17:03;;;;;;;15.10;13.00;;;;;;;11.68;96.55;96869.41;6261211;28;20716;-39
2022/09/26 05:20:07;;;;;;;15.60;13.70;;;;;;;11.76;95.83;96866.88;6245218;28;20249;-40
2022/09/26 05:26:49;;;;;;;13.37;11.23;;;;;;;11.78;95.04;96871.00;6277897;28;20241;-39
2022/09/26 05:29:55;;;;;;;14.67;12.87;;;;;;;11.76;95.65;96878.28;6276519;28;20240;-39
2022/09/26 05:32:58;;;;;;;16.93;13.33;;;;;;;11.77;95.50;96879.94;6260264;28;20222;-39
2022/09/26 05:36:00;;;;;;;14.40;12.37;;;;;;;11.79;95.51;96877.13;6277687;28;20238;-39
2022/09/26 05:39:04;;;;;;;15.07;12.67;;;;;;;11.80;95.88;96874.34;6277771;28;20215;-39
2022/09/26 05:42:07;;;;;;;14.30;11.77;;;;;;;11.81;95.33;96872.53;6276994;28;20875;-39
2022/09/26 05:45:09;;;;;;;19.67;12.23;;;;;;;11.85;95.40;96876.53;6260056;28;20233;-39
2022/09/26 05:48:12;;;;;;;15.47;12.87;;;;;;;11.88;95.31;96870.94;6276983;28;20578;-39
2022/09/26 05:51:19;;;;;;;14.00;12.23;;;;;;;11.90;95.46;96873.44;6264792;28;20211;-40
2022/09/26 05:54:21;;;;;;;13.83;12.27;;;;;;;11.91;95.62;96865.34;6278301;28;20234;-41
2022/09/26 05:57:26;;;;;;;14.83;12.00;;;;;;;11.96;95.47;96871.03;6260187;28;20299;-39
2022/09/26 06:00:29;;;;;;;14.90;11.50;;;;;;;12.03;95.06;96863.31;6277441;28;20226;-39
2022/09/26 06:03:33;;;;;;;12.13;10.67;;;;;;;12.06;95.10;96871.78;6276387;28;20321;-39
2022/09/26 06:06:43;;;;;;;14.30;12.20;;;;;;;12.10;94.77;96872.28;6278543;28;20281;-40
2022/09/26 06:09:49;;;;;;;17.10;12.97;;;;;;;12.14;94.13;96868.38;6261290;28;20279;-39
2022/09/26 06:13:06;;;;;;;13.33;11.40;;;;;;;12.22;93.75;96872.88;6284474;28;20230;-39
2022/09/26 06:16:19;;;;;;;13.97;11.77;;;;;;;12.30;93.44;96884.34;6266100;28;20241;-39
2022/09/26 06:19:21;;;;;;;13.23;11.83;;;;;;;12.38;92.75;96875.66;6282606;28;20237;-39
2022/09/26 06:22:25;;;;;;;13.50;11.87;;;;;;;12.45;92.26;96874.06;6264754;28;20319;-39
2022/09/26 06:25:28;;;;;;;16.13;12.90;;;;;;;12.50;92.22;96877.91;6281970;28;20379;-39
2022/09/26 06:28:34;;;;;;;14.23;12.43;;;;;;;12.59;91.21;96870.84;6281975;28;20240;-39
2022/09/26 06:31:36;;;;;;;13.77;12.27;;;;;;;12.67;90.36;96878.03;6281046;28;20740;-40
2022/09/26 06:34:45;;;;;;;15.40;12.20;;;;;;;12.69;91.00;96879.50;6283799;28;20242;-39
2022/09/26 06:38:22;;;;;;;15.47;13.07;;;;;;;12.63;89.35;96887.25;6267297;28;20230;-39
2022/09/26 06:41:25;;;;;;;17.57;13.83;;;;;;;12.69;88.56;96887.44;6283193;28;20283;-39
2022/09/26 06:44:27;;;;;;;13.57;12.17;;;;;;;12.75;88.73;96891.31;6280577;28;20333;-39
2022/09/26 06:47:47;;;;;;;15.17;13.23;;;;;;;12.76;nan;96888.50;6282658;28;20596;-40
2022/09/26 06:51:05;;;;;;;13.80;12.30;;;;;;;12.82;88.47;96887.03;6282254;28;20329;-40
2022/09/26 06:54:07;;;;;;;15.50;12.83;;;;;;;12.89;88.85;96885.41;6263948;28;20231;-39
2022/09/26 06:57:13;;;;;;;15.47;11.97;;;;;;;12.97;88.58;96884.66;6281883;28;20226;-41
2022/09/26 07:00:16;;;;;;;12.83;11.37;;;;;;;13.12;88.60;96891.00;6263859;28;20206;-39
2022/09/26 07:03:47;;;;;;;14.67;11.40;;;;;;;13.22;88.32;96894.41;6272462;28;20542;-39
2022/09/26 07:07:08;;;;;;;10.93;8.60;;;;;;;13.35;87.86;96893.97;6282547;28;20242;-39
2022/09/26 07:10:10;;;;;;;11.83;9.87;;;;;;;13.44;87.46;96898.31;6281782;28;20684;-39
2022/09/26 07:13:16;;;;;;;9.10;8.20;;;;;;;13.55;87.20;96890.91;6263366;28;20751;-40
2022/09/26 07:16:20;;;;;;;11.63;10.10;;;;;;;13.63;86.72;96893.56;6281190;28;20238;-40
2022/09/26 07:19:43;;;;;;;9.43;8.43;;;;;;;13.77;85.63;96900.09;6250752;28;20234;-39
2022/09/26 07:23:08;;;;;;;9.07;8.17;;;;;;;13.88;84.91;96897.09;6280758;28;20280;-39
2022/09/26 07:26:11;;;;;;;9.57;7.97;;;;;;;13.91;84.29;96902.09;6257039;28;20235;-39
2022/09/26 07:29:13;;;;;;;9.47;7.80;;;;;;;13.90;84.09;96904.91;6269181;28;20228;-39
2022/09/26 07:32:16;;;;;;;8.53;7.63;;;;;;;13.93;84.12;96905.41;6258005;28;20317;-39
2022/09/26 07:35:34;;;;;;;8.20;7.40;;;;;;;13.97;83.19;96903.28;6263455;28;20653;-41
2022/09/26 07:38:36;;;;;;;7.70;6.80;;;;;;;13.98;82.93;96911.03;6279456;28;20261;-41
2022/09/26 07:41:39;;;;;;;7.43;6.73;;;;;;;14.08;82.86;96905.59;6274800;28;20284;-39
2022/09/26 07:44:41;;;;;;;6.93;6.23;;;;;;;14.13;82.61;96913.06;6246435;28;20238;-39
2022/09/26 07:51:43;;;;;;;10.40;7.23;;;;;;;14.13;82.40;96916.56;6280886;28;20234;-39
2022/09/26 07:54:51;;;;;;;7.73;7.03;;;;;;;14.11;81.96;96912.41;6263072;28;20701;-39
2022/09/26 07:58:15;;;;;;;6.83;6.23;;;;;;;14.11;81.66;96917.72;6279863;28;20215;-40
2022/09/26 08:01:37;;;;;;;9.77;7.50;;;;;;;14.16;80.76;96918.06;6281747;28;20223;-40
2022/09/26 08:05:08;;;;;;;7.93;7.13;;;;;;;14.09;80.70;96917.03;6279668;28;20246;-39
2022/09/26 08:08:13;;;;;;;10.67;8.07;;;;;;;14.10;80.61;96910.72;6280201;28;20223;-39
2022/09/26 08:11:34;;;;;;;9.10;8.20;;;;;;;14.07;80.56;96922.53;6279730;28;20231;-39
2022/09/26 08:14:54;;;;;;;8.73;7.83;;;;;;;14.07;80.77;96919.03;6263147;28;20233;-39
2022/09/26 08:18:14;;;;;;;9.40;7.53;;;;;;;14.13;80.32;96919.22;6262401;28;20293;-40
2022/09/26 08:21:17;;;;;;;8.63;7.83;;;;;;;14.30;80.05;96928.00;6273062;28;20253;-40
2022/09/26 08:24:19;;;;;;;7.27;6.60;;;;;;;14.45;78.87;96923.75;6261573;28;20211;-39
2022/09/26 08:27:25;;;;;;;8.27;7.47;;;;;;;14.55;78.42;96918.28;6267838;28;20238;-39
2022/09/26 08:30:30;;;;;;;8.13;7.33;;;;;;;14.58;78.26;96925.88;6277574;28;20245;-40
2022/09/26 08:33:39;;;;;;;9.73;8.73;;;;;;;14.49;77.83;96933.03;6282460;28;20605;-39
2022/09/26 08:36:40;;;;;;;8.33;7.50;;;;;;;14.50;77.78;96933.84;6278620;28;20230;-39
2022/09/26 08:39:46;;;;;;;7.53;6.83;;;;;;;14.62;78.17;96938.69;6279102;28;20233;-39
2022/09/26 08:43:50;;;;;;;8.13;6.90;;;;;;;14.67;77.34;96939.00;6279044;28;20614;-39
2022/09/26 08:47:32;;;;;;;7.03;5.77;;;;;;;14.71;77.20;96940.34;6270853;28;20245;-39
2022/09/26 08:51:48;;;;;;;7.63;6.93;;;;;;;14.78;77.07;96930.69;6265527;28;20230;-39
2022/09/26 08:54:53;;;;;;;12.77;5.60;;;;;;;14.83;77.37;96927.53;6259891;28;20237;-40
2022/09/26 08:57:59;;;;;;;8.37;7.57;;;;;;;14.84;75.74;96929.22;6279128;28;20313;-39
2022/09/26 09:01:09;;;;;;;6.70;6.10;;;;;;;14.80;75.57;96925.22;6278384;28;20237;-39
2022/09/26 09:05:08;;;;;;;7.30;6.20;;;;;;;14.81;74.94;96921.56;6277049;28;20265;-39
2022/09/26 09:08:21;;;;;;;5.37;4.87;;;;;;;14.86;74.73;96924.56;6257693;28;20321;-41
2022/09/26 09:11:44;;;;;;;4.83;4.33;;;;;;;14.99;75.19;96926.69;6260467;28;20607;-39
2022/09/26 09:15:03;;;;;;;4.53;3.77;;;;;;;15.29;71.49;96915.31;6278772;28;20234;-40
2022/09/26 09:19:13;;;;;;;4.83;3.17;;;;;;;188.01;100.00;60274.75;6277899;28;20238;-39
2022/09/26 09:22:47;;;;;;;2.60;2.40;;;;;;;-144.22;100.00;60274.75;6268951;28;20295;-39
2022/09/26 09:26:10;;;;;;;2.33;2.13;;;;;;;-144.22;100.00;60274.75;6278120;28;20261;-40
2022/09/26 09:29:55;;;;;;;3.57;2.30;;;;;;;-144.22;100.00;60274.75;6276371;28;20299;-39
2022/09/26 09:33:17;;;;;;;2.17;2.07;;;;;;;-144.22;100.00;60274.75;6256576;28;20713;-39
2022/09/26 09:36:32;;;;;;;2.33;2.13;;;;;;;-144.22;100.00;60274.75;6278822;28;20598;-39
2022/09/26 09:39:55;;;;;;;2.13;1.93;;;;;;;-144.22;100.00;60274.75;6277826;28;20245;-39
2022/09/26 09:43:46;;;;;;;2.20;2.00;;;;;;;-144.22;100.00;60274.75;6278073;28;20364;-40
2022/09/26 09:46:50;;;;;;;2.10;1.90;;;;;;;18.04;100.00;60274.75;6278612;28;20611;-40
2022/09/26 09:49:52;;;;;;;1.50;1.40;;;;;;;-144.22;100.00;60274.75;6260029;28;20758;-40
2022/09/26 09:53:44;;;;;;;1.57;1.47;;;;;;;-144.22;100.00;60274.75;6260625;28;20317;-40
2022/09/26 09:57:06;;;;;;;1.60;1.50;;;;;;;-144.22;100.00;60274.75;6176636;28;20720;-41
2022/09/26 10:00:19;;;;;;;1.40;1.30;;;;;;;-144.22;100.00;60274.75;6176117;28;20305;-40
2022/09/26 10:03:47;;;;;;;1.50;1.23;;;;;;;-144.22;100.00;60274.75;6160531;28;20640;-40
2022/09/26 10:06:50;;;;;;;1.60;1.30;;;;;;;-144.22;100.00;60274.75;6160681;28;20245;-42
2022/09/26 10:09:56;;;;;;;2.13;1.20;;;;;;;-144.22;100.00;60274.75;6177164;28;20315;-40
2022/09/26 10:12:59;;;;;;;1.27;1.17;;;;;;;-144.22;100.00;60274.75;6167260;28;20221;-41
2022/09/26 10:16:19;;;;;;;1.40;1.30;;;;;;;-144.22;100.00;60274.75;6166428;28;20226;-40
2022/09/26 10:19:36;;;;;;;1.67;1.57;;;;;;;-144.22;100.00;60274.75;6176617;28;20237;-41
2022/09/26 10:22:44;;;;;;;1.50;1.40;;;;;;;188.01;100.00;60274.75;6169492;28;20687;-40
2022/09/26 10:26:02;;;;;;;1.30;1.20;;;;;;;-144.22;100.00;60274.75;6173456;28;20268;-40
2022/09/26 10:29:20;;;;;;;1.40;1.30;;;;;;;188.01;100.00;60274.75;6253364;28;20692;-40
2022/09/26 10:32:22;;;;;;;2.77;1.43;;;;;;;17.72;100.00;60274.75;6258908;28;20242;-40
2022/09/26 10:35:41;;;;;;;2.37;1.30;;;;;;;-144.22;100.00;60274.75;6261361;28;20428;-40
2022/09/26 10:42:39;;;;;;;1.47;1.30;;;;;;;-144.22;100.00;60274.75;6255341;28;20611;-40
2022/09/26 10:45:42;;;;;;;1.70;1.60;;;;;;;-144.22;100.00;60274.75;6262644;28;20575;-40
2022/09/26 10:49:13;;;;;;;2.90;1.40;;;;;;;-144.22;100.00;60274.75;6259893;28;20239;-40
2022/09/26 10:52:48;;;;;;;1.03;1.03;;;;;;;-144.22;100.00;60274.75;6256985;28;20215;-40
2022/09/26 10:55:58;;;;;;;1.60;1.50;;;;;;;18.62;100.00;60274.75;6261376;28;20227;-39
2022/09/26 10:59:07;;;;;;;1.37;1.27;;;;;;;-144.22;100.00;60274.75;6246442;28;20231;-40
2022/09/26 12:46:39;;;;;;;2.63;2.00;;;;;;;-144.22;100.00;60274.75;6275311;28;20230;-39
2022/09/26 12:49:54;;;;;;;1.57;1.47;;;;;;;-144.22;100.00;60274.75;6280391;28;20230;-40
2022/09/26 12:53:24;;;;;;;1.97;1.80;;;;;;;-144.22;100.00;60274.75;6279653;28;20231;-40
2022/09/26 12:56:44;;;;;;;1.67;1.57;;;;;;;-144.22;100.00;60274.75;6280444;28;20703;-39
2022/09/26 13:00:07;;;;;;;1.60;1.50;;;;;;;20.13;100.00;60274.75;6279268;28;20725;-40
2022/09/26 13:03:36;;;;;;;1.70;1.60;;;;;;;-144.22;100.00;60274.75;6278947;28;20743;-40
2022/09/26 13:06:43;;;;;;;1.87;1.60;;;;;;;-144.22;100.00;60274.75;6278581;28;20237;-40
2022/09/26 13:10:25;;;;;;;1.63;1.53;;;;;;;-144.22;100.00;60274.75;6278777;28;20558;-40
2022/09/26 13:14:13;;;;;;;1.70;1.60;;;;;;;20.41;100.00;60274.75;6279733;28;20318;-40
2022/09/26 13:17:24;;;;;;;1.73;1.30;;;;;;;-144.22;100.00;60274.75;6278040;28;20226;-40
2022/09/26 13:20:53;;;;;;;1.70;1.60;;;;;;;-144.22;100.00;60274.75;6278839;28;20274;-40
2022/09/26 13:24:03;;;;;;;1.77;1.67;;;;;;;104.84;100.00;60274.75;6275486;28;20222;-40
2022/09/26 13:27:28;;;;;;;1.70;1.20;;;;;;;-144.22;100.00;60274.75;6278919;28;20230;-41
2022/09/26 13:30:53;;;;;;;1.40;1.30;;;;;;;-144.22;100.00;60274.75;6277997;28;20238;-40
2022/09/26 13:34:15;;;;;;;2.03;1.70;;;;;;;-144.22;100.00;60274.75;6279100;28;20706;-41
2022/09/26 13:38:09;;;;;;;1.40;1.30;;;;;;;-144.22;100.00;60274.75;6281505;28;20223;-40
2022/09/26 13:41:41;;;;;;;2.83;1.13;;;;;;;-144.22;100.00;60274.75;6202354;28;20231;-40
2022/09/26 13:45:10;;;;;;;1.50;1.40;;;;;;;23.04;100.00;60274.75;6201065;28;20236;-40
2022/09/26 13:48:23;;;;;;;2.73;1.50;;;;;;;-144.22;100.00;60274.75;6191144;28;20247;-40
2022/09/26 13:51:48;;;;;;;2.23;1.47;;;;;;;25.64;100.00;60274.75;6206461;28;20240;-40
2022/09/26 13:55:01;;;;;;;1.40;1.30;;;;;;;-144.22;100.00;60274.75;6172936;28;20723;-40
2022/09/26 13:58:18;;;;;;;1.40;1.30;;;;;;;32.13;100.00;60274.75;6203386;28;20260;-40
2022/09/26 14:01:26;;;;;;;1.40;1.30;;;;;;;-144.22;100.00;60274.75;6200924;28;20221;-41
2022/09/26 14:04:33;;;;;;;1.53;1.43;;;;;;;21.45;100.00;60274.75;6201239;28;20236;-40
2022/09/26 14:11:10;;;;;;;1.50;1.10;;;;;;;-144.22;100.00;60274.75;6201233;28;20229;-41
2022/09/26 14:14:18;;;;;;;1.37;1.27;;;;;;;-144.22;100.00;60274.75;6201537;28;20653;-41
2022/09/26 14:17:43;;;;;;;3.17;1.70;;;;;;;-144.22;100.00;60274.75;6267703;28;20225;-40
2022/09/26 14:21:04;;;;;;;1.17;1.10;;;;;;;-144.22;100.00;60274.75;6277154;28;20223;-40
2022/09/26 14:24:28;;;;;;;1.33;1.23;;;;;;;19.72;100.00;60274.75;6277218;28;20241;-40
2022/09/26 14:27:36;;;;;;;1.00;1.00;;;;;;;-144.22;100.00;60274.75;6277460;28;20231;-43
2022/09/26 14:30:38;;;;;;;1.30;1.20;;;;;;;-144.22;100.00;60274.75;6279697;28;20239;-42
2022/09/26 14:33:41;;;;;;;1.83;1.30;;;;;;;-144.22;100.00;60274.75;6282476;28;20640;-42
2022/09/26 14:36:45;;;;;;;1.37;1.27;;;;;;;-144.22;100.00;60274.75;6283746;28;20230;-43
2022/09/26 14:40:00;;;;;;;1.20;1.10;;;;;;;-144.22;100.00;60274.75;6282785;28;20706;-43
2022/09/26 14:43:14;;;;;;;1.40;1.30;;;;;;;-144.22;100.00;60274.75;6281934;28;20724;-43
2022/09/26 14:46:54;;;;;;;1.30;1.20;;;;;;;-144.22;100.00;60274.75;6280092;28;20593;-42
2022/09/26 14:50:04;;;;;;;1.27;1.17;;;;;;;-144.22;100.00;60274.75;6257830;28;20596;-43
2022/09/26 14:53:28;;;;;;;1.20;1.10;;;;;;;-144.22;100.00;60274.75;6257752;28;20235;-43
2022/09/26 14:56:39;;;;;;;1.20;1.10;;;;;;;-144.22;100.00;60274.75;6256772;28;20253;-44
2022/09/26 14:59:43;;;;;;;1.07;1.00;;;;;;;-144.22;100.00;60274.75;6257318;28;20235;-42
2022/09/26 15:02:49;;;;;;;1.10;1.00;;;;;;;-144.22;100.00;60274.75;6257690;28;20227;-43
2022/09/26 15:05:51;;;;;;;1.23;1.13;;;;;;;-144.22;100.00;60274.75;6256242;28;20369;-43
2022/09/26 15:08:54;;;;;;;3.07;1.23;;;;;;;-144.22;100.00;60274.75;6257634;28;20250;-44
2022/09/26 15:12:06;;;;;;;1.27;1.17;;;;;;;-144.22;100.00;60274.75;6256792;28;20243;-43
2022/09/26 15:15:34;;;;;;;1.73;1.37;;;;;;;-144.22;100.00;60274.75;6256970;28;20219;-42
2022/09/26 15:18:40;;;;;;;1.20;1.10;;;;;;;-144.22;100.00;60274.75;6256652;28;20238;-44
2022/09/26 15:21:47;;;;;;;1.97;1.13;;;;;;;-144.22;100.00;60274.75;6256805;28;20269;-43
2022/09/26 15:24:53;;;;;;;1.37;1.27;;;;;;;-144.22;100.00;60274.75;6255657;28;20235;-43
2022/09/26 15:27:56;;;;;;;2.10;1.30;;;;;;;-144.22;100.00;60274.75;6255990;28;20551;-44
2022/09/26 15:31:38;;;;;;;1.50;1.40;;;;;;;-144.22;100.00;60274.75;6255650;28;20238;-43
2022/09/26 15:34:41;;;;;;;1.40;1.30;;;;;;;-144.22;100.00;60274.75;6256206;28;20261;-43
2022/09/26 15:37:44;;;;;;;1.13;1.03;;;;;;;-144.22;100.00;60274.75;6256217;28;20556;-43
2022/09/26 15:41:04;;;;;;;1.33;1.23;;;;;;;-144.22;100.00;60274.75;6256587;28;20226;-42
2022/09/26 15:44:18;;;;;;;1.50;1.30;;;;;;;-144.22;100.00;60274.75;6254248;28;20223;-44
2022/09/26 15:47:27;;;;;;;1.60;1.30;;;;;;;-144.22;100.00;60274.75;6263889;28;20271;-42
2022/09/26 15:50:44;;;;;;;1.37;1.20;;;;;;;-144.22;100.00;60274.75;6253395;28;20600;-42
2022/09/26 15:53:52;;;;;;;1.20;1.10;;;;;;;-144.22;100.00;60274.75;6243002;28;20227;-42
2022/09/26 15:56:58;;;;;;;2.23;1.30;;;;;;;-144.22;100.00;60274.75;6254907;28;20236;-43
2022/09/26 16:00:01;;;;;;;1.37;1.27;;;;;;;-144.22;100.00;60274.75;6247049;28;20711;-43
2022/09/26 16:03:35;;;;;;;2.67;1.10;;;;;;;-144.22;100.00;60274.75;6252739;28;20293;-42
2022/09/26 16:06:51;;;;;;;1.83;1.00;;;;;;;-144.22;100.00;60274.75;6236789;28;20215;-42
2022/09/26 16:09:55;;;;;;;1.30;1.20;;;;;;;-144.22;100.00;60274.75;6249147;28;20847;-42
2022/09/26 16:12:59;;;;;;;1.07;1.00;;;;;;;-144.22;100.00;60274.75;6253802;28;20241;-42
2022/09/26 16:16:07;;;;;;;3.13;1.27;;;;;;;-144.22;100.00;60274.75;6248317;28;20238;-44
2022/09/26 16:19:31;;;;;;;3.03;1.17;;;;;;;-144.22;100.00;60274.75;6253585;28;20226;-43
2022/09/26 16:22:35;;;;;;;1.83;1.00;;;;;;;-144.22;100.00;60274.75;6228532;28;20232;-42
2022/09/26 16:25:52;;;;;;;1.10;1.10;;;;;;;-144.22;100.00;60274.75;6240179;28;20410;-42
2022/09/26 16:28:56;;;;;;;1.40;1.30;;;;;;;-144.22;100.00;60274.75;6253970;28;20265;-42
2022/09/26 16:31:58;;;;;;;1.57;1.47;;;;;;;-144.22;100.00;60274.75;6254787;28;20233;-42
2022/09/26 16:35:18;;;;;;;2.47;1.33;;;;;;;-144.22;100.00;60274.75;6253585;28;20215;-42
2022/09/26 16:38:32;;;;;;;1.53;1.43;;;;;;;-144.22;100.00;60274.75;6255827;28;20216;-42
2022/09/26 16:41:36;;;;;;;1.60;1.50;;;;;;;-144.22;100.00;60274.75;6253733;28;20722;-42
2022/09/26 16:45:04;;;;;;;2.17;1.10;;;;;;;-144.22;100.00;60274.75;6254915;28;20228;-41
2022/09/26 16:48:42;;;;;;;2.47;1.57;;;;;;;-144.22;100.00;60274.75;6254111;28;20219;-42
2022/09/26 16:52:19;;;;;;;1.70;1.60;;;;;;;-144.22;100.00;60274.75;6252297;28;20234;-44